Time;durP1;ratioP1;P1;durP2;ratioP2;P2;SDS_P1;SDS_P2;PMS_P1;PMS_P2;Temp;Humidity;BMP_temperature;BMP_pressure;BME280_temperature;BME280_humidity;BME280_pressure;Samples;Min_cycle;Max_cycle;Signal;HPM_P1;HPM_P2
2023/08/14 00:00:32;;;;;;;13.13;6.25;;;;;;;;;;4999616;28;25070;-74
2023/08/14 00:02:58;;;;;;;11.02;5.90;;;;;;;;;;5001930;28;25077;-73
2023/08/14 00:05:25;;;;;;;11.60;5.43;;;;;;;;;;4989132;28;25151;-71
2023/08/14 00:07:51;;;;;;;10.98;5.93;;;;;;;;;;4992595;28;25063;-72
2023/08/14 00:10:17;;;;;;;15.77;5.80;;;;;;;;;;5008628;28;25060;-73
2023/08/14 00:12:43;;;;;;;13.98;6.35;;;;;;;;;;4991534;28;25396;-75
2023/08/14 00:15:09;;;;;;;13.63;5.90;;;;;;;;;;4989131;28;25078;-74
2023/08/14 00:17:35;;;;;;;12.80;6.47;;;;;;;;;;4994723;28;25062;-74
2023/08/14 00:20:02;;;;;;;9.90;5.78;;;;;;;;;;5012332;28;25076;-71
2023/08/14 00:22:28;;;;;;;11.25;5.63;;;;;;;;;;4995852;28;25112;-73
2023/08/14 00:24:54;;;;;;;10.82;6.28;;;;;;;;;;4996846;28;25153;-72
2023/08/14 00:27:22;;;;;;;12.38;6.32;;;;;;;;;;4991087;28;25077;-75
2023/08/14 00:29:48;;;;;;;20.60;7.22;;;;;;;;;;5003395;28;25082;-74
2023/08/14 00:32:14;;;;;;;13.98;6.88;;;;;;;;;;4996264;28;25219;-74
2023/08/14 00:34:40;;;;;;;19.67;6.80;;;;;;;;;;5001580;28;25088;-72
2023/08/14 00:37:06;;;;;;;11.48;5.60;;;;;;;;;;4996700;28;25113;-74
2023/08/14 00:39:32;;;;;;;11.27;6.38;;;;;;;;;;4998409;28;25060;-72
2023/08/14 00:41:58;;;;;;;15.32;5.75;;;;;;;;;;4995344;28;25126;-72
2023/08/14 00:44:24;;;;;;;16.45;6.57;;;;;;;;;;4992251;28;25067;-71
2023/08/14 00:46:50;;;;;;;12.00;6.18;;;;;;;;;;4997409;28;25073;-71
2023/08/14 00:49:16;;;;;;;14.73;6.40;;;;;;;;;;4996709;28;25105;-72
2023/08/14 00:51:42;;;;;;;15.82;6.70;;;;;;;;;;4990713;28;25133;-71
2023/08/14 00:54:08;;;;;;;13.93;6.13;;;;;;;;;;4991956;28;25074;-74
2023/08/14 00:56:35;;;;;;;15.45;6.60;;;;;;;;;;5000761;28;25092;-73
2023/08/14 00:59:01;;;;;;;13.85;6.85;;;;;;;;;;4990346;28;25078;-73
2023/08/14 01:01:27;;;;;;;12.68;6.22;;;;;;;;;;4994093;28;25069;-73
2023/08/14 01:03:55;;;;;;;8.63;5.70;;;;;;;;;;4990352;28;25092;-71
2023/08/14 01:06:21;;;;;;;10.55;5.65;;;;;;;;;;4991726;28;25179;-75
2023/08/14 01:08:47;;;;;;;14.35;7.07;;;;;;;;;;4990754;28;25099;-73
2023/08/14 01:11:24;;;;;;;14.05;6.15;;;;;;;;;;4994993;28;25074;-71
2023/08/14 01:13:59;;;;;;;12.10;5.32;;;;;;;;;;4999890;28;25068;-72
2023/08/14 01:16:34;;;;;;;12.68;5.57;;;;;;;;;;4996848;28;25077;-70
2023/08/14 01:19:01;;;;;;;10.40;5.00;;;;;;;;;;4997207;28;25070;-72
2023/08/14 01:21:33;;;;;;;10.23;6.07;;;;;;;;;;4989032;28;25063;-74
2023/08/14 01:23:59;;;;;;;;;;;;;;;;;;4994740;28;25099;-72
2023/08/14 01:26:26;;;;;;;12.57;5.63;;;;;;;;;;4998164;28;25183;-72
2023/08/14 01:28:53;;;;;;;15.48;5.50;;;;;;;;;;4984138;28;25100;-71
2023/08/14 01:31:19;;;;;;;12.80;5.57;;;;;;;;;;4995926;28;25046;-72
2023/08/14 01:33:45;;;;;;;9.73;5.38;;;;;;;;;;4993688;28;25117;-71
2023/08/14 01:36:17;;;;;;;19.98;6.40;;;;;;;;;;4988473;28;25129;-73
2023/08/14 01:38:50;;;;;;;15.05;5.00;;;;;;;;;;4996110;28;25066;-72
2023/08/14 01:41:25;;;;;;;11.25;5.03;;;;;;;;;;4993087;28;25072;-73
2023/08/14 01:43:55;;;;;;;8.80;4.88;;;;;;;;;;4994649;28;25176;-72
2023/08/14 01:46:21;;;;;;;11.93;4.50;;;;;;;;;;5008094;28;25158;-71
2023/08/14 01:48:49;;;;;;;9.45;4.55;;;;;;;;;;4993581;28;25087;-71
2023/08/14 01:51:16;;;;;;;9.15;4.80;;;;;;;;;;5002877;28;25142;-72
2023/08/14 01:53:41;;;;;;;9.43;4.80;;;;;;;;;;4996629;28;25072;-71
2023/08/14 01:56:08;;;;;;;10.45;5.25;;;;;;;;;;5006570;28;25084;-71
2023/08/14 01:58:33;;;;;;;10.00;4.40;;;;;;;;;;5001535;28;25052;-71
2023/08/14 02:00:59;;;;;;;8.10;4.45;;;;;;;;;;5005735;28;25059;-74
2023/08/14 02:03:25;;;;;;;10.93;4.57;;;;;;;;;;5030880;28;25067;-74
2023/08/14 02:05:51;;;;;;;8.63;4.20;;;;;;;;;;5013099;28;25074;-73
2023/08/14 02:08:17;;;;;;;7.50;4.75;;;;;;;;;;5018283;28;25054;-74
2023/08/14 02:10:46;;;;;;;11.65;5.05;;;;;;;;;;5010820;28;25058;-74
2023/08/14 02:13:12;;;;;;;9.00;4.93;;;;;;;;;;4996498;28;25134;-72
2023/08/14 02:15:38;;;;;;;10.38;4.55;;;;;;;;;;5001606;28;25083;-71
2023/08/14 02:18:04;;;;;;;8.27;4.78;;;;;;;;;;4994847;28;25086;-76
2023/08/14 02:20:30;;;;;;;9.45;4.65;;;;;;;;;;4998656;28;25052;-71
2023/08/14 02:22:56;;;;;;;12.57;4.70;;;;;;;;;;4996066;28;25149;-72
2023/08/14 02:25:22;;;;;;;8.68;4.68;;;;;;;;;;5010582;28;25092;-72
2023/08/14 02:27:48;;;;;;;7.57;4.88;;;;;;;;;;5003624;28;25073;-71
2023/08/14 02:30:14;;;;;;;6.05;4.28;;;;;;;;;;5007045;28;25143;-70
2023/08/14 02:32:40;;;;;;;9.48;4.40;;;;;;;;;;5004063;28;25115;-72
2023/08/14 02:35:06;;;;;;;11.88;5.10;;;;;;;;;;5005037;28;25052;-74
2023/08/14 02:37:32;;;;;;;8.10;5.38;;;;;;;;;;5005172;28;25064;-72
2023/08/14 02:39:58;;;;;;;9.63;4.70;;;;;;;;;;5002870;28;25072;-74
2023/08/14 02:42:24;;;;;;;8.35;4.75;;;;;;;;;;5001854;28;25147;-72
2023/08/14 02:44:50;;;;;;;9.10;5.03;;;;;;;;;;5005296;28;25174;-72
2023/08/14 02:47:17;;;;;;;8.43;4.88;;;;;;;;;;4999758;28;25070;-74
2023/08/14 02:49:43;;;;;;;8.57;4.55;;;;;;;;;;4995836;28;25105;-72
2023/08/14 02:52:09;;;;;;;12.88;5.60;;;;;;;;;;5000872;28;25137;-74
2023/08/14 02:54:35;;;;;;;10.82;4.97;;;;;;;;;;5012080;28;25149;-73
2023/08/14 02:57:01;;;;;;;5.00;4.18;;;;;;;;;;5003298;28;25062;-73
2023/08/14 02:59:27;;;;;;;9.65;4.38;;;;;;;;;;4992020;28;25108;-74
2023/08/14 03:01:53;;;;;;;6.90;4.88;;;;;;;;;;4999835;28;25078;-74
2023/08/14 03:04:19;;;;;;;5.90;4.00;;;;;;;;;;4991061;28;25078;-72
2023/08/14 03:06:45;;;;;;;5.88;4.38;;;;;;;;;;4999647;28;25174;-72
2023/08/14 03:09:11;;;;;;;7.90;4.18;;;;;;;;;;4996381;28;25060;-72
2023/08/14 03:11:37;;;;;;;10.20;4.65;;;;;;;;;;4995344;28;25074;-73
2023/08/14 03:14:04;;;;;;;8.93;4.13;;;;;;;;;;4986870;28;25086;-73
2023/08/14 03:16:30;;;;;;;10.98;4.75;;;;;;;;;;4990360;28;25055;-73
2023/08/14 03:18:56;;;;;;;7.95;4.28;;;;;;;;;;4998015;28;25074;-72
2023/08/14 03:21:22;;;;;;;7.95;4.22;;;;;;;;;;5004019;28;25046;-72
2023/08/14 03:23:50;;;;;;;6.45;4.22;;;;;;;;;;5011072;28;25055;-73
2023/08/14 03:26:16;;;;;;;8.10;4.88;;;;;;;;;;5008059;28;25078;-73
2023/08/14 03:28:42;;;;;;;8.20;5.00;;;;;;;;;;5002688;28;25106;-73
2023/08/14 03:31:08;;;;;;;8.02;5.18;;;;;;;;;;5003836;28;25063;-71
2023/08/14 03:33:34;;;;;;;5.68;4.93;;;;;;;;;;5005823;28;25081;-72
2023/08/14 03:36:00;;;;;;;7.72;4.78;;;;;;;;;;5001630;28;25096;-71
2023/08/14 03:38:26;;;;;;;8.55;4.70;;;;;;;;;;5004168;28;25066;-72
2023/08/14 03:40:52;;;;;;;7.95;4.97;;;;;;;;;;4997399;28;25161;-72
2023/08/14 03:43:18;;;;;;;5.97;4.43;;;;;;;;;;4999291;28;25097;-72
2023/08/14 03:45:44;;;;;;;7.75;4.38;;;;;;;;;;5030157;23;25052;-78
2023/08/14 03:48:09;;;;;;;12.10;4.90;;;;;;;;;;5011594;28;25138;-77
2023/08/14 03:50:35;;;;;;;9.25;5.07;;;;;;;;;;5033013;28;25093;-78
2023/08/14 03:53:01;;;;;;;7.05;5.15;;;;;;;;;;5044782;28;25065;-78
2023/08/14 03:55:27;;;;;;;10.13;5.05;;;;;;;;;;5040073;28;25078;-78
2023/08/14 03:57:56;;;;;;;11.57;5.70;;;;;;;;;;5041919;28;25076;-79
2023/08/14 04:00:22;;;;;;;9.02;6.03;;;;;;;;;;5019166;28;25091;-79
2023/08/14 04:02:48;;;;;;;11.32;6.18;;;;;;;;;;5023010;28;25099;-78
2023/08/14 04:05:14;;;;;;;14.55;6.88;;;;;;;;;;5026967;28;25062;-77
2023/08/14 04:07:40;;;;;;;15.55;7.63;;;;;;;;;;5019871;28;25136;-79
2023/08/14 04:10:07;;;;;;;10.25;6.80;;;;;;;;;;5019101;28;25078;-78
2023/08/14 04:12:33;;;;;;;14.35;7.28;;;;;;;;;;5019076;28;25067;-76
2023/08/14 04:15:12;;;;;;;12.38;6.93;;;;;;;;;;5017339;28;25077;-77
2023/08/14 04:17:39;;;;;;;15.77;7.90;;;;;;;;;;5026483;28;25094;-78
2023/08/14 04:20:06;;;;;;;11.73;7.50;;;;;;;;;;5018471;28;25068;-80
2023/08/14 04:22:32;;;;;;;14.45;9.70;;;;;;;;;;5021013;28;25074;-78
2023/08/14 04:24:57;;;;;;;13.95;9.43;;;;;;;;;;5013205;28;25072;-77
2023/08/14 04:27:23;;;;;;;14.13;9.27;;;;;;;;;;5015748;28;25119;-77
2023/08/14 04:29:49;;;;;;;17.27;9.57;;;;;;;;;;5037379;28;25073;-78
2023/08/14 04:32:16;;;;;;;13.55;8.73;;;;;;;;;;5024632;28;25052;-77
2023/08/14 04:34:42;;;;;;;17.98;10.30;;;;;;;;;;5025368;28;25078;-78
2023/08/14 04:37:07;;;;;;;12.45;9.05;;;;;;;;;;5029876;28;25080;-79
2023/08/14 04:39:33;;;;;;;14.77;8.68;;;;;;;;;;5026565;28;25063;-78
2023/08/14 04:41:59;;;;;;;14.48;8.80;;;;;;;;;;5031427;28;25074;-79
2023/08/14 04:44:26;;;;;;;17.23;9.48;;;;;;;;;;5052350;28;25075;-76
2023/08/14 04:46:51;;;;;;;16.98;9.43;;;;;;;;;;5020999;28;25057;-79
2023/08/14 04:49:17;;;;;;;17.38;9.20;;;;;;;;;;5028815;28;25065;-79
2023/08/14 04:51:44;;;;;;;12.90;8.25;;;;;;;;;;5031233;28;25063;-79
2023/08/14 04:54:10;;;;;;;15.57;9.25;;;;;;;;;;5033138;28;25062;-80
2023/08/14 04:56:36;;;;;;;12.65;8.15;;;;;;;;;;5026552;28;25075;-78
2023/08/14 04:59:02;;;;;;;13.10;9.00;;;;;;;;;;5029640;28;25061;-78
2023/08/14 05:01:28;;;;;;;16.10;8.60;;;;;;;;;;5023495;28;25109;-80
2023/08/14 05:03:54;;;;;;;16.90;8.35;;;;;;;;;;5034969;28;25072;-79
2023/08/14 05:06:20;;;;;;;11.93;7.75;;;;;;;;;;5034167;28;25138;-79
2023/08/14 05:08:45;;;;;;;12.85;8.23;;;;;;;;;;5021273;28;25071;-78
2023/08/14 05:11:11;;;;;;;14.35;8.35;;;;;;;;;;5019722;28;25071;-77
2023/08/14 05:13:39;;;;;;;12.85;8.38;;;;;;;;;;5040797;28;25179;-78
2023/08/14 05:16:06;;;;;;;14.82;7.63;;;;;;;;;;5019521;28;25069;-78
2023/08/14 05:18:32;;;;;;;15.00;7.97;;;;;;;;;;5023646;28;25068;-80
2023/08/14 05:20:57;;;;;;;12.40;8.35;;;;;;;;;;5013947;28;25065;-77
2023/08/14 05:23:23;;;;;;;12.65;7.85;;;;;;;;;;5017530;28;25161;-78
2023/08/14 05:25:49;;;;;;;19.60;7.30;;;;;;;;;;5028608;28;25101;-78
2023/08/14 05:28:15;;;;;;;14.50;7.93;;;;;;;;;;5020393;28;25077;-77
2023/08/14 05:30:45;;;;;;;8.98;6.88;;;;;;;;;;5013039;28;25081;-78
2023/08/14 05:33:12;;;;;;;13.90;7.25;;;;;;;;;;5010974;28;25258;-78
2023/08/14 05:35:38;;;;;;;11.25;6.50;;;;;;;;;;5014270;28;25068;-78
2023/08/14 05:38:04;;;;;;;13.13;7.20;;;;;;;;;;5011683;28;25073;-78
2023/08/14 05:40:30;;;;;;;11.55;7.18;;;;;;;;;;5021730;28;25080;-78
2023/08/14 05:43:03;;;;;;;15.45;7.70;;;;;;;;;;5019960;28;25081;-80
2023/08/14 05:45:33;;;;;;;9.95;6.18;;;;;;;;;;5008570;28;25059;-80
2023/08/14 05:47:59;;;;;;;9.73;5.78;;;;;;;;;;5007693;28;25137;-79
2023/08/14 05:50:26;;;;;;;9.85;6.20;;;;;;;;;;5009199;28;25062;-77
2023/08/14 05:52:53;;;;;;;11.25;5.63;;;;;;;;;;5009840;28;25070;-78
2023/08/14 05:55:18;;;;;;;13.90;6.90;;;;;;;;;;5007447;28;25076;-79
2023/08/14 05:57:44;;;;;;;12.80;6.18;;;;;;;;;;5013569;28;25062;-80
2023/08/14 06:00:11;;;;;;;7.78;5.80;;;;;;;;;;5008517;28;25171;-78
2023/08/14 06:02:37;;;;;;;8.25;5.53;;;;;;;;;;5011978;28;25122;-80
2023/08/14 06:05:03;;;;;;;6.03;4.40;;;;;;;;;;5006478;28;25074;-78
2023/08/14 06:07:29;;;;;;;7.25;4.63;;;;;;;;;;5007282;28;25081;-79
2023/08/14 06:09:54;;;;;;;8.98;4.43;;;;;;;;;;5013042;28;25159;-80
2023/08/14 06:12:20;;;;;;;6.45;4.40;;;;;;;;;;5005038;28;25085;-77
2023/08/14 06:14:46;;;;;;;11.98;5.03;;;;;;;;;;5014468;28;25077;-79
2023/08/14 06:17:12;;;;;;;8.15;4.05;;;;;;;;;;5003785;28;25066;-78
2023/08/14 06:19:38;;;;;;;5.63;3.75;;;;;;;;;;5017428;28;25118;-77
2023/08/14 06:22:05;;;;;;;7.72;4.05;;;;;;;;;;5015486;28;25117;-79
2023/08/14 06:24:31;;;;;;;4.97;3.40;;;;;;;;;;5019753;28;25063;-79
2023/08/14 06:26:57;;;;;;;4.05;3.53;;;;;;;;;;5016579;28;25064;-78
2023/08/14 06:29:23;;;;;;;4.70;3.58;;;;;;;;;;5019231;28;25092;-78
2023/08/14 06:31:49;;;;;;;7.57;3.42;;;;;;;;;;5014233;28;25073;-78
2023/08/14 06:34:15;;;;;;;4.90;2.70;;;;;;;;;;5017878;28;25079;-78
2023/08/14 06:36:41;;;;;;;5.32;2.58;;;;;;;;;;5003323;28;25055;-80
2023/08/14 06:39:07;;;;;;;5.13;3.00;;;;;;;;;;5021241;28;25070;-78
2023/08/14 06:41:33;;;;;;;6.97;2.88;;;;;;;;;;5015486;28;25071;-79
2023/08/14 06:43:59;;;;;;;4.80;2.55;;;;;;;;;;5020806;28;25063;-79
2023/08/14 06:46:25;;;;;;;6.00;2.72;;;;;;;;;;5027099;28;25085;-78
2023/08/14 06:48:51;;;;;;;8.55;4.05;;;;;;;;;;5011723;28;25168;-79
2023/08/14 06:51:17;;;;;;;8.57;3.35;;;;;;;;;;5012256;28;25122;-81
2023/08/14 06:53:43;;;;;;;5.40;4.10;;;;;;;;;;5034949;28;25112;-77
2023/08/14 06:56:09;;;;;;;4.78;2.83;;;;;;;;;;5029976;28;25084;-78
2023/08/14 06:58:35;;;;;;;9.20;3.75;;;;;;;;;;5017478;28;25114;-79
2023/08/14 07:01:06;;;;;;;8.55;3.17;;;;;;;;;;5009721;28;25079;-83
2023/08/14 07:03:32;;;;;;;6.63;3.00;;;;;;;;;;5016274;28;25100;-80
2023/08/14 07:05:58;;;;;;;7.10;3.13;;;;;;;;;;5012080;28;25100;-79
2023/08/14 07:08:24;;;;;;;8.77;3.13;;;;;;;;;;5014387;28;25537;-80
2023/08/14 07:10:50;;;;;;;8.63;3.33;;;;;;;;;;5021672;28;25109;-80
2023/08/14 07:13:16;;;;;;;5.68;2.42;;;;;;;;;;5023332;28;25076;-78
2023/08/14 07:15:42;;;;;;;3.53;2.35;;;;;;;;;;5004754;28;25076;-79
2023/08/14 07:18:08;;;;;;;7.60;2.45;;;;;;;;;;5017777;28;25100;-81
2023/08/14 07:20:34;;;;;;;8.60;2.95;;;;;;;;;;5012456;28;25069;-79
2023/08/14 07:23:00;;;;;;;7.45;3.58;;;;;;;;;;5007458;28;25140;-78
2023/08/14 07:25:26;;;;;;;7.20;2.85;;;;;;;;;;5014278;28;25071;-80
2023/08/14 07:27:53;;;;;;;7.55;2.85;;;;;;;;;;5013352;28;25149;-79
2023/08/14 07:30:19;;;;;;;4.22;2.58;;;;;;;;;;5010545;28;25083;-79
2023/08/14 07:32:45;;;;;;;5.00;3.05;;;;;;;;;;5001079;28;25049;-78
2023/08/14 07:35:12;;;;;;;7.53;3.10;;;;;;;;;;5011569;28;25070;-80
2023/08/14 07:37:37;;;;;;;7.30;3.67;;;;;;;;;;5007338;28;25091;-78
2023/08/14 07:40:06;;;;;;;6.60;2.70;;;;;;;;;;5000695;28;25163;-78
2023/08/14 07:42:32;;;;;;;4.25;2.42;;;;;;;;;;5016649;28;25107;-78
2023/08/14 07:44:58;;;;;;;6.05;2.40;;;;;;;;;;5005373;28;25160;-78
2023/08/14 07:47:24;;;;;;;4.30;2.30;;;;;;;;;;5012012;28;25065;-79
2023/08/14 07:49:50;;;;;;;4.07;2.70;;;;;;;;;;5017295;28;25128;-80
2023/08/14 07:52:16;;;;;;;5.93;2.20;;;;;;;;;;5004775;28;25140;-78
2023/08/14 07:54:42;;;;;;;4.75;2.10;;;;;;;;;;5009201;28;25062;-78
2023/08/14 07:57:08;;;;;;;5.88;2.00;;;;;;;;;;5008844;28;25162;-77
2023/08/14 07:59:34;;;;;;;5.07;2.05;;;;;;;;;;4998837;28;25165;-77
2023/08/14 08:02:00;;;;;;;4.15;2.67;;;;;;;;;;5002595;28;25093;-78
2023/08/14 08:04:26;;;;;;;4.57;1.80;;;;;;;;;;5007740;28;25062;-77
2023/08/14 08:06:52;;;;;;;5.30;2.35;;;;;;;;;;4996606;28;25150;-78
2023/08/14 08:09:18;;;;;;;5.68;2.25;;;;;;;;;;5011908;28;25070;-77
2023/08/14 08:11:44;;;;;;;3.80;1.90;;;;;;;;;;5016617;28;25075;-77
2023/08/14 08:14:10;;;;;;;5.97;2.30;;;;;;;;;;5008824;28;25078;-77
2023/08/14 08:16:36;;;;;;;6.60;2.40;;;;;;;;;;5016292;28;25125;-76
2023/08/14 08:19:06;;;;;;;4.00;1.92;;;;;;;;;;5004608;28;25152;-77
2023/08/14 08:21:32;;;;;;;5.72;2.53;;;;;;;;;;5009986;28;25068;-77
2023/08/14 08:23:58;;;;;;;4.03;2.30;;;;;;;;;;5010431;28;25070;-77
2023/08/14 08:26:25;;;;;;;10.70;1.95;;;;;;;;;;5012086;28;25073;-78
2023/08/14 08:28:51;;;;;;;6.07;2.00;;;;;;;;;;4998955;28;25148;-76
2023/08/14 08:31:17;;;;;;;3.45;2.00;;;;;;;;;;5015662;28;25104;-77
2023/08/14 08:33:43;;;;;;;9.93;2.72;;;;;;;;;;4993529;28;25158;-76
2023/08/14 08:36:09;;;;;;;4.28;1.90;;;;;;;;;;5010927;28;25056;-78
2023/08/14 08:38:35;;;;;;;8.43;2.75;;;;;;;;;;5010279;28;25064;-76
2023/08/14 08:41:02;;;;;;;7.38;2.50;;;;;;;;;;5008450;28;25074;-76
2023/08/14 08:43:28;;;;;;;10.57;2.97;;;;;;;;;;5008815;28;25114;-78
2023/08/14 08:45:55;;;;;;;8.10;2.85;;;;;;;;;;5018427;28;25072;-76
2023/08/14 08:48:22;;;;;;;5.10;2.22;;;;;;;;;;5012757;28;25062;-77
2023/08/14 08:50:51;;;;;;;8.15;2.83;;;;;;;;;;5012210;28;25050;-77
2023/08/14 08:53:21;;;;;;;4.45;2.67;;;;;;;;;;5005921;28;25071;-78
2023/08/14 08:55:47;;;;;;;7.70;3.05;;;;;;;;;;5010018;28;25105;-77
2023/08/14 08:58:15;;;;;;;6.07;2.13;;;;;;;;;;5019412;28;25064;-77
2023/08/14 09:00:42;;;;;;;6.53;2.42;;;;;;;;;;5021618;28;25050;-76
2023/08/14 09:03:09;;;;;;;8.48;2.53;;;;;;;;;;5008098;28;25050;-76
2023/08/14 09:05:35;;;;;;;8.15;3.05;;;;;;;;;;5017760;28;25062;-78
2023/08/14 09:08:02;;;;;;;7.03;2.53;;;;;;;;;;5013835;28;25139;-75
2023/08/14 09:10:28;;;;;;;7.57;2.78;;;;;;;;;;5012701;28;25143;-78
2023/08/14 09:12:55;;;;;;;7.65;2.65;;;;;;;;;;5014859;28;25065;-77
2023/08/14 09:15:22;;;;;;;6.65;2.72;;;;;;;;;;5011540;28;25109;-76
2023/08/14 09:17:48;;;;;;;4.28;2.42;;;;;;;;;;5005349;28;25078;-77
2023/08/14 09:20:15;;;;;;;5.55;2.22;;;;;;;;;;5001599;28;25047;-76
2023/08/14 09:22:41;;;;;;;5.45;2.67;;;;;;;;;;5013846;28;25094;-75
2023/08/14 09:25:07;;;;;;;8.88;2.83;;;;;;;;;;5001971;28;25108;-77
2023/08/14 09:27:33;;;;;;;9.70;2.55;;;;;;;;;;5016196;28;25064;-76
2023/08/14 09:29:59;;;;;;;7.63;1.70;;;;;;;;;;5008338;28;25079;-76
2023/08/14 09:32:25;;;;;;;6.93;2.22;;;;;;;;;;5005948;28;25091;-76
2023/08/14 09:35:01;;;;;;;11.13;2.00;;;;;;;;;;4999647;28;25111;-77
2023/08/14 09:37:27;;;;;;;6.03;2.47;;;;;;;;;;5006968;28;25087;-76
2023/08/14 09:40:09;;;;;;;5.85;1.98;;;;;;;;;;5015259;28;25076;-75
2023/08/14 09:42:35;;;;;;;4.50;1.73;;;;;;;;;;5002359;28;25082;-76
2023/08/14 09:45:01;;;;;;;7.05;2.15;;;;;;;;;;5013381;28;25056;-76
2023/08/14 09:47:27;;;;;;;4.95;1.70;;;;;;;;;;5018524;28;25084;-77
2023/08/14 09:49:54;;;;;;;8.85;2.20;;;;;;;;;;5000469;28;25054;-75
2023/08/14 09:52:20;;;;;;;6.35;2.22;;;;;;;;;;5016266;28;25138;-75
2023/08/14 09:54:48;;;;;;;3.42;1.80;;;;;;;;;;5019558;28;25074;-77
2023/08/14 09:57:14;;;;;;;5.82;1.83;;;;;;;;;;5025531;28;25055;-76
2023/08/14 09:59:40;;;;;;;6.90;2.05;;;;;;;;;;5031825;28;25076;-75
2023/08/14 10:02:09;;;;;;;4.45;1.88;;;;;;;;;;5027402;28;25061;-75
2023/08/14 10:04:36;;;;;;;7.80;1.63;;;;;;;;;;5029616;28;25063;-77
2023/08/14 10:07:02;;;;;;;6.85;2.05;;;;;;;;;;5026751;28;25080;-78
2023/08/14 10:09:28;;;;;;;6.38;1.75;;;;;;;;;;5034913;28;25051;-79
2023/08/14 10:11:55;;;;;;;6.45;1.90;;;;;;;;;;5039203;28;25073;-79
2023/08/14 10:14:23;;;;;;;5.50;1.90;;;;;;;;;;5017682;28;25078;-77
2023/08/14 10:16:49;;;;;;;5.07;1.65;;;;;;;;;;5005820;28;25055;-74
2023/08/14 10:19:17;;;;;;;4.00;1.60;;;;;;;;;;5014586;28;25069;-75
2023/08/14 10:21:43;;;;;;;5.10;1.92;;;;;;;;;;5023218;28;25484;-78
2023/08/14 10:24:11;;;;;;;6.50;2.17;;;;;;;;;;5012370;28;25090;-74
2023/08/14 10:26:37;;;;;;;3.97;1.60;;;;;;;;;;5013798;28;25186;-76
2023/08/14 10:29:04;;;;;;;3.35;1.52;;;;;;;;;;5034980;28;25071;-74
2023/08/14 10:31:30;;;;;;;6.97;1.50;;;;;;;;;;5024970;28;25067;-76
2023/08/14 10:33:57;;;;;;;6.53;1.65;;;;;;;;;;5006037;28;25101;-75
2023/08/14 10:36:26;;;;;;;3.83;1.77;;;;;;;;;;5021186;28;25077;-76
2023/08/14 10:38:52;;;;;;;4.97;1.70;;;;;;;;;;5013986;28;25087;-73
2023/08/14 10:41:18;;;;;;;6.85;1.20;;;;;;;;;;5015679;28;25090;-76
2023/08/14 10:43:50;;;;;;;6.22;1.83;;;;;;;;;;5010801;28;25062;-75
2023/08/14 10:46:17;;;;;;;10.90;1.85;;;;;;;;;;5008061;28;25044;-76
2023/08/14 10:48:43;;;;;;;5.18;1.90;;;;;;;;;;5022122;28;25069;-74
2023/08/14 10:51:12;;;;;;;5.60;1.50;;;;;;;;;;4993537;28;25079;-75
2023/08/14 10:53:40;;;;;;;3.15;1.35;;;;;;;;;;5010579;28;25092;-74
2023/08/14 10:56:06;;;;;;;5.65;1.30;;;;;;;;;;5004179;28;25082;-76
2023/08/14 10:58:35;;;;;;;5.22;1.73;;;;;;;;;;5023159;28;25066;-74
2023/08/14 11:01:04;;;;;;;7.45;1.70;;;;;;;;;;5022279;28;25087;-75
2023/08/14 11:03:32;;;;;;;9.73;1.67;;;;;;;;;;5010850;28;25153;-75
2023/08/14 11:05:58;;;;;;;4.20;1.75;;;;;;;;;;5020143;28;25074;-72
2023/08/14 11:08:28;;;;;;;5.88;1.98;;;;;;;;;;5010711;28;25069;-75
2023/08/14 11:10:53;;;;;;;4.82;1.50;;;;;;;;;;5016214;28;25079;-75
2023/08/14 11:13:19;;;;;;;3.42;1.85;;;;;;;;;;5012552;28;25134;-75
2023/08/14 11:15:45;;;;;;;4.57;2.05;;;;;;;;;;5014958;28;25061;-75
2023/08/14 11:18:12;;;;;;;7.05;1.83;;;;;;;;;;5005510;28;25082;-75
2023/08/14 11:20:38;;;;;;;4.07;1.75;;;;;;;;;;5018705;28;25067;-74
2023/08/14 11:23:05;;;;;;;6.50;1.80;;;;;;;;;;5021970;28;25068;-75
2023/08/14 11:25:32;;;;;;;5.30;1.80;;;;;;;;;;5025684;28;25071;-75
2023/08/14 11:27:58;;;;;;;5.15;1.80;;;;;;;;;;5015893;28;25048;-75
2023/08/14 11:30:25;;;;;;;4.28;1.70;;;;;;;;;;5024901;28;25126;-75
2023/08/14 11:32:51;;;;;;;5.90;1.52;;;;;;;;;;5028602;28;25135;-75
2023/08/14 11:35:18;;;;;;;8.45;2.00;;;;;;;;;;5027216;28;25064;-77
2023/08/14 11:37:45;;;;;;;7.85;2.00;;;;;;;;;;5023788;28;25063;-74
2023/08/14 11:40:13;;;;;;;5.55;1.90;;;;;;;;;;5022261;28;25073;-76
2023/08/14 11:42:39;;;;;;;2.50;1.40;;;;;;;;;;5027348;28;25089;-77
2023/08/14 11:45:07;;;;;;;6.05;1.63;;;;;;;;;;5027807;28;25054;-76
2023/08/14 11:47:37;;;;;;;8.02;1.73;;;;;;;;;;5012996;28;25159;-76
2023/08/14 11:50:07;;;;;;;5.80;1.80;;;;;;;;;;5012629;28;25063;-76
2023/08/14 11:52:33;;;;;;;7.38;1.90;;;;;;;;;;5018376;28;25120;-75
2023/08/14 11:54:59;;;;;;;5.47;1.85;;;;;;;;;;5019030;28;25083;-75
2023/08/14 11:57:26;;;;;;;9.30;1.80;;;;;;;;;;5003617;28;25103;-76
2023/08/14 11:59:52;;;;;;;3.40;1.38;;;;;;;;;;5017801;28;25059;-76
2023/08/14 12:02:19;;;;;;;5.85;2.20;;;;;;;;;;5026384;28;25100;-77
2023/08/14 12:04:45;;;;;;;5.00;1.50;;;;;;;;;;5027408;28;25060;-76
2023/08/14 12:07:11;;;;;;;8.55;1.85;;;;;;;;;;5017457;28;25057;-75
2023/08/14 12:09:38;;;;;;;5.28;2.00;;;;;;;;;;5026923;28;25056;-75
2023/08/14 12:12:04;;;;;;;3.47;1.67;;;;;;;;;;5010651;28;25059;-74
2023/08/14 12:14:59;;;;;;;6.68;1.70;;;;;;;;;;5026690;28;25077;-74
2023/08/14 12:17:25;;;;;;;4.95;1.48;;;;;;;;;;5006375;28;25152;-76
2023/08/14 12:19:52;;;;;;;4.78;1.42;;;;;;;;;;5020468;28;25061;-74
2023/08/14 12:22:25;;;;;;;7.22;1.58;;;;;;;;;;5017344;28;25070;-75
2023/08/14 12:24:51;;;;;;;4.45;1.60;;;;;;;;;;5013525;28;25065;-76
2023/08/14 12:27:17;;;;;;;3.72;1.30;;;;;;;;;;5018700;28;25055;-75
2023/08/14 12:29:44;;;;;;;4.30;1.65;;;;;;;;;;5020684;28;25098;-75
2023/08/14 12:32:10;;;;;;;6.70;1.73;;;;;;;;;;5015195;28;25052;-75
2023/08/14 12:34:36;;;;;;;4.63;1.60;;;;;;;;;;5016085;28;25175;-75
2023/08/14 12:37:02;;;;;;;7.47;2.03;;;;;;;;;;5018462;28;25102;-75
2023/08/14 12:39:29;;;;;;;7.88;1.80;;;;;;;;;;5015979;28;25083;-74
2023/08/14 12:41:56;;;;;;;7.07;1.75;;;;;;;;;;5021287;28;25106;-75
2023/08/14 12:44:22;;;;;;;5.85;1.25;;;;;;;;;;5000843;28;25144;-74
2023/08/14 12:46:48;;;;;;;5.43;1.73;;;;;;;;;;5002901;28;25059;-74
2023/08/14 12:49:14;;;;;;;8.48;2.20;;;;;;;;;;5004503;28;25075;-75
2023/08/14 12:51:41;;;;;;;7.10;2.00;;;;;;;;;;5019480;28;25114;-74
2023/08/14 12:54:07;;;;;;;6.57;1.55;;;;;;;;;;5014781;28;25147;-75
2023/08/14 12:56:33;;;;;;;7.13;2.13;;;;;;;;;;5019511;28;25081;-74
2023/08/14 12:59:00;;;;;;;6.60;1.80;;;;;;;;;;5023425;28;25121;-74
2023/08/14 13:01:25;;;;;;;6.93;1.80;;;;;;;;;;5019407;28;25149;-75
2023/08/14 13:03:53;;;;;;;6.88;1.88;;;;;;;;;;5012042;28;25074;-75
2023/08/14 13:06:19;;;;;;;4.75;1.55;;;;;;;;;;5013829;28;25072;-73
2023/08/14 13:08:45;;;;;;;5.32;2.17;;;;;;;;;;5008004;28;25135;-75
2023/08/14 13:11:12;;;;;;;3.40;1.77;;;;;;;;;;5002887;28;25086;-76
2023/08/14 13:13:38;;;;;;;4.82;1.50;;;;;;;;;;4995295;28;25135;-75
2023/08/14 13:16:04;;;;;;;3.08;1.30;;;;;;;;;;5005982;28;25172;-73
2023/08/14 13:18:30;;;;;;;3.63;1.70;;;;;;;;;;5014877;28;25083;-75
2023/08/14 13:20:57;;;;;;;7.63;2.13;;;;;;;;;;5009840;28;25139;-75
2023/08/14 13:23:23;;;;;;;6.63;2.08;;;;;;;;;;5013589;28;25085;-74
2023/08/14 13:25:48;;;;;;;6.97;1.95;;;;;;;;;;5003879;28;25107;-73
2023/08/14 13:28:14;;;;;;;4.43;1.55;;;;;;;;;;5012730;28;25065;-74
2023/08/14 13:30:40;;;;;;;5.85;1.75;;;;;;;;;;5011205;28;25068;-73
2023/08/14 13:33:06;;;;;;;4.18;1.30;;;;;;;;;;5004531;28;25066;-73
2023/08/14 13:35:32;;;;;;;5.07;1.77;;;;;;;;;;5005626;28;25057;-73
2023/08/14 13:37:59;;;;;;;5.05;1.60;;;;;;;;;;4998586;28;25091;-74
2023/08/14 13:40:25;;;;;;;4.32;1.52;;;;;;;;;;5007402;28;25073;-76
2023/08/14 13:42:51;;;;;;;5.75;1.60;;;;;;;;;;5016080;28;25498;-73
2023/08/14 13:45:17;;;;;;;5.07;1.85;;;;;;;;;;5019465;28;25101;-74
2023/08/14 13:47:43;;;;;;;4.00;1.30;;;;;;;;;;5006416;28;25079;-75
2023/08/14 13:50:09;;;;;;;3.45;1.48;;;;;;;;;;5006333;28;25074;-73
2023/08/14 13:52:35;;;;;;;4.45;1.70;;;;;;;;;;5007936;28;24813;-75
2023/08/14 13:55:01;;;;;;;5.22;2.15;;;;;;;;;;5014817;28;25141;-73
2023/08/14 13:57:28;;;;;;;7.50;2.47;;;;;;;;;;5011779;28;25073;-73
2023/08/14 13:59:54;;;;;;;7.40;1.75;;;;;;;;;;5003061;28;25131;-73
2023/08/14 14:02:20;;;;;;;5.55;1.42;;;;;;;;;;5014209;28;25068;-73
2023/08/14 14:04:46;;;;;;;4.63;2.05;;;;;;;;;;5003624;28;25061;-74
2023/08/14 14:07:12;;;;;;;6.35;1.65;;;;;;;;;;5005772;28;25053;-75
2023/08/14 14:09:38;;;;;;;6.38;1.95;;;;;;;;;;5007198;28;25053;-74
2023/08/14 14:12:04;;;;;;;4.13;1.40;;;;;;;;;;5004750;28;25057;-74
2023/08/14 14:14:30;;;;;;;5.15;1.63;;;;;;;;;;4999780;28;25165;-75
2023/08/14 14:16:57;;;;;;;6.90;1.92;;;;;;;;;;5014045;28;25124;-75
2023/08/14 14:19:24;;;;;;;4.13;1.67;;;;;;;;;;4995465;28;25087;-74
2023/08/14 14:21:50;;;;;;;5.15;1.92;;;;;;;;;;5015418;28;25103;-78
2023/08/14 14:24:16;;;;;;;9.43;1.75;;;;;;;;;;5000450;28;25089;-74
2023/08/14 14:26:42;;;;;;;7.45;2.25;;;;;;;;;;5011489;28;25058;-74
2023/08/14 14:29:08;;;;;;;5.13;1.70;;;;;;;;;;5016741;28;25050;-74
2023/08/14 14:31:34;;;;;;;7.10;2.17;;;;;;;;;;5022226;28;25056;-74
2023/08/14 14:34:00;;;;;;;5.05;1.67;;;;;;;;;;5017050;28;25156;-73
2023/08/14 14:36:26;;;;;;;5.15;1.73;;;;;;;;;;5010981;28;25143;-73